Latest Coastal Weather Observations for Swanbourne

IDW60701

Issued at 8:31 am WST Sunday 1 May 2016 (issued every 10 minutes, with the page automatically refreshed every 10 minutes)

About coastal observations | Map of coastal stations | Coastal observations for WA | Marine services | Other Formats
Station Details ID: 009215 Name: SWANBOURNE Lat: -31.96 Lon: 115.76 Height: 40.96 m
Data from the previous 72 hours. | See also: Recent months at Swanbourne
Date/Time
WST
Temp

°C
Wind Pressure Rain
since 9am
mm
Weather Cloud Vis
km
Sea
Height
m
Swell
Dir
 
Speed
knots
Gust
knots
hPa Trend Height
m
Period
s
Dir
01/08:30am 15.1 E 5 7 - - 0.0 - - - - - - -
01/08:00am 14.5 E 5 7 - - 0.0 - - - - - - -
01/07:30am 13.9 E 5 6 - - 0.0 - - - - - - -
01/07:00am 13.8 E 5 6 - - 0.0 - - - - - - -
01/06:30am 14.0 ESE 7 10 - - 0.0 - - - - - - -
01/06:00am 14.0 ESE 6 8 - - 0.0 - - - - - - -
01/05:30am 13.9 ESE 6 8 - - 0.0 - - - - - - -
01/05:00am 13.9 ESE 5 7 - - 0.0 - - - - - - -
01/04:30am 13.8 ESE 5 7 - - 0.0 - - - - - - -
01/04:00am 13.8 E 4 5 - - 0.0 - - - - - - -
01/03:30am 13.9 ESE 5 7 - - 0.0 - - - - - - -
01/03:00am 13.9 ESE 5 7 - - 0.0 - - - - - - -
01/02:30am 13.8 E 6 7 - - 0.0 - - - - - - -
01/02:00am 13.9 ESE 6 8 - - 0.0 - - - - - - -
01/01:30am 13.8 ESE 5 8 - - 0.0 - - - - - - -
01/01:00am 14.0 ESE 5 7 - - 0.0 - - - - - - -
01/12:30am 14.0 ESE 5 7 - - 0.0 - - - - - - -
01/12:00am 14.1 ESE 5 7 - - 0.0 - - - - - - -
 
Date/Time
WST
Temp

°C
Wind Pressure Rain
since 9am
mm
Weather Cloud Vis
km
Sea
Height
m
Swell
Dir
 
Speed
knots
Gust
knots
hPa Trend Height
m
Period
s
Dir
30/11:30pm 14.3 ESE 5 7 - - 0.0 - - - - - - -
30/11:00pm 14.5 ESE 5 8 - - 0.0 - - - - - - -
30/10:30pm 14.6 ESE 4 6 - - 0.0 - - - - - - -
30/10:00pm 14.9 ESE 5 8 - - 0.0 - - - - - - -
30/09:30pm 15.1 ESE 6 11 - - 0.0 - - - - - - -
30/09:00pm 15.4 SE 5 9 - - 0.0 - - - - - - -
30/08:30pm 15.7 SE 5 9 - - 0.0 - - - - - - -
30/08:00pm 15.7 SSE 4 7 - - 0.0 - - - - - - -
30/07:30pm 15.3 SSE 4 6 - - 0.0 - - - - - - -
30/07:00pm 14.9 SSE 4 5 - - 0.0 - - - - - - -
30/06:30pm 15.2 SSE 3 3 - - 0.0 - - - - - - -
30/06:00pm 15.1 S 4 7 - - 0.0 - - - - - - -
30/05:30pm 15.8 S 7 10 - - 0.0 - - - - - - -
30/05:00pm 16.6 SSW 7 11 - - 0.0 - - - - - - -
30/04:30pm 17.2 SW 7 9 - - 0.0 - - - - - - -
30/04:00pm 17.8 SW 6 9 - - 0.0 - - - - - - -
30/03:30pm 17.1 SW 9 12 - - 0.0 - - - - - - -
30/03:00pm 17.9 SSW 8 12 - - 0.0 - - - - - - -
30/02:30pm 18.6 S 6 9 - - 0.0 - - - - - - -
30/02:00pm 17.9 SSW 8 12 - - 0.0 - - - - - - -
30/01:30pm 19.0 SW 8 11 - - 0.0 - - - - - - -
30/01:00pm 17.7 SE 5 9 - - 0.0 - - - - - - -
30/12:30pm 17.4 S 7 11 - - 0.0 - - - - - - -
30/12:00pm 17.4 SSE 7 13 - - 0.0 - - - - - - -
30/11:30am 17.4 SE 5 10 - - 0.0 - - - - - - -
30/11:00am 17.2 SE 6 10 - - 0.0 - - - - - - -
30/10:30am 15.9 SE 7 12 - - 0.0 - - - - - - -
30/10:00am 15.8 SE 6 10 - - 0.0 - - - - - - -
30/09:30am 14.7 SE 8 13 - - 0.0 - - - - - - -
30/09:00am 14.4 ESE 6 9 - - 5.0 - - - - - - -
30/08:30am 13.7 ESE 5 8 - - 5.0 - - - - - - -
30/08:00am 13.2 ESE 6 11 - - 5.0 - - - - - - -
30/07:30am 12.7 ESE 5 9 - - 5.0 - - - - - - -
30/07:00am 12.4 E 5 7 - - 5.0 - - - - - - -
30/06:30am 12.8 ESE 6 9 - - 5.0 - - - - - - -
30/06:00am 12.6 ESE 6 10 - - 5.0 - - - - - - -
30/05:30am 12.7 ESE 5 8 - - 5.0 - - - - - - -
30/05:00am 12.6 ESE 6 9 - - 5.0 - - - - - - -
30/04:30am 12.3 SE 6 9 - - 4.8 - - - - - - -
30/04:00am 12.5 SE 7 11 - - 4.8 - - - - - - -
30/03:30am 12.3 SE 7 11 - - 4.8 - - - - - - -
30/03:00am 12.7 SE 7 11 - - 4.8 - - - - - - -
30/02:30am 12.8 SE 7 12 - - 4.8 - - - - - - -
30/02:00am 13.4 SE 8 13 - - 4.8 - - - - - - -
30/01:30am 13.6 SE 6 10 - - 4.8 - - - - - - -
30/01:00am 14.3 SE 5 9 - - 4.6 - - - - - - -
30/12:30am 14.6 S 6 11 - - 4.6 - - - - - - -
30/12:00am 14.6 SE 4 6 - - 4.0 Recent precip. - - - - - -
 
Date/Time
WST
Temp

°C
Wind Pressure Rain
since 9am
mm
Weather Cloud Vis
km
Sea
Height
m
Swell
Dir
 
Speed
knots
Gust
knots
hPa Trend Height
m
Period
s
Dir
29/11:30pm 14.8 E 3 4 - - 3.8 - - - - - - -
29/11:00pm 14.8 S 2 5 - - 3.4 - - - - - - -
29/10:30pm 14.9 SSE 5 8 - - 3.4 - - - - - - -
29/10:00pm 15.3 S 9 16 - - 2.8 - - - - - - -
29/09:30pm 15.5 SSW 16 25 - - 2.8 - - - - - - -
29/09:02pm 16.4 WSW 16 26 - - 1.4 - - - - - - -
29/09:00pm 16.7 WSW 17 26 - - 1.2 Rain - - - - - -
29/08:40pm 16.5 WSW 18 29 - - 0.8 - - - - - - -
29/08:30pm 16.6 WSW 21 28 - - 0.8 - - - - - - -
29/08:19pm 17.9 W 19 31 - - 0.6 - - - - - - -
29/08:17pm 19.1 W 18 31 - - 0.4 - - - - - - -
29/08:00pm 18.8 W 18 27 - - 0.4 - - - - - - -
29/07:48pm 19.0 W 16 27 - - 0.4 - - - - - - -
29/07:30pm 19.1 W 15 22 - - 0.4 - - - - - - -
29/07:00pm 18.9 W 15 22 - - 0.4 - - - - - - -
29/06:30pm 18.9 W 15 23 - - 0.4 - - - - - - -
29/06:00pm 19.1 W 16 21 - - 0.4 - - - - - - -
29/05:30pm 19.0 W 15 20 - - 0.4 - - - - - - -
29/05:00pm 19.4 W 14 21 - - 0.4 - - - - - - -
29/04:30pm 19.5 WSW 16 23 - - 0.4 - - - - - - -
29/04:00pm 19.8 W 14 21 - - 0.4 - - - - - - -
29/03:30pm 19.7 W 16 23 - - 0.4 - - - - - - -
29/03:00pm 20.1 WSW 15 22 - - 0.4 - - - - - - -
29/02:30pm 20.8 W 17 25 - - 0.4 - - - - - - -
29/02:00pm 21.2 W 16 23 - - 0.4 - - - - - - -
29/01:30pm 19.2 W 11 17 - - 0.4 - - - - - - -
29/01:00pm 19.8 W 15 21 - - 0.4 - - - - - - -
29/12:30pm 21.4 W 14 21 - - 0.4 - - - - - - -
29/12:00pm 19.5 W 14 21 - - 0.4 Recent precip. - - - - - -
29/11:30am 20.5 W 13 20 - - 0.2 - - - - - - -
29/11:00am 19.9 W 11 16 - - 0.2 - - - - - - -
29/10:30am 18.3 W 14 20 - - 0.2 - - - - - - -
29/10:00am 17.4 W 10 18 - - 0.2 - - - - - - -
29/09:30am 20.2 W 11 16 - - 0.0 - - - - - - -
29/09:00am 19.3 WNW 7 13 - - 1.2 - - - - - - -
29/08:30am 18.6 W 11 16 - - 1.2 - - - - - - -
29/08:00am 18.6 WSW 10 13 - - 1.2 - - - - - - -
29/07:30am 18.2 WSW 11 16 - - 1.2 - - - - - - -
29/07:00am 18.2 WSW 12 17 - - 1.2 - - - - - - -
29/06:30am 17.9 W 8 12 - - 1.2 - - - - - - -
29/06:00am 18.1 W 11 16 - - 1.2 - - - - - - -
29/05:30am 17.7 W 10 14 - - 1.2 - - - - - - -
29/05:00am 17.8 W 11 15 - - 1.2 - - - - - - -
29/04:30am 18.0 WSW 11 18 - - 1.2 - - - - - - -
29/04:00am 17.9 WSW 13 21 - - 1.2 - - - - - - -
29/03:30am 17.9 W 12 17 - - 1.2 - - - - - - -
29/03:00am 18.0 W 11 16 - - 1.2 - - - - - - -
29/02:30am 18.2 W 10 14 - - 1.2 - - - - - - -
29/02:00am 18.1 W 9 13 - - 1.2 - - - - - - -
29/01:30am 18.1 SW 9 13 - - 1.2 - - - - - - -
29/01:00am 18.2 WSW 9 13 - - 1.2 - - - - - - -
29/12:30am 18.2 WSW 11 15 - - 1.2 - - - - - - -
29/12:00am 18.3 WSW 11 16 - - 1.2 - - - - - - -
 
Date/Time
WST
Temp

°C
Wind Pressure Rain
since 9am
mm
Weather Cloud Vis
km
Sea
Height
m
Swell
Dir
 
Speed
knots
Gust
knots
hPa Trend Height
m
Period
s
Dir
28/11:30pm 18.4 WSW 12 18 - - 1.2 - - - - - - -
28/11:00pm 18.3 SW 10 15 - - 1.2 - - - - - - -
28/10:30pm 18.6 SW 11 17 - - 1.2 - - - - - - -
28/10:00pm 18.1 SW 10 16 - - 1.2 - - - - - - -
28/09:30pm 18.2 SW 11 17 - - 1.2 - - - - - - -
28/09:00pm 18.6 WSW 10 13 - - 1.0 - - - - - - -
28/08:30pm 18.5 SW 11 16 - - 1.0 - - - - - - -
28/08:00pm 18.4 SSW 11 17 - - 1.0 - - - - - - -
28/07:30pm 18.7 WSW 12 17 - - 1.0 - - - - - - -
28/07:00pm 18.6 SW 12 17 - - 1.0 - - - - - - -
28/06:30pm 18.7 SW 12 18 - - 1.0 - - - - - - -
28/06:00pm 18.8 SW 13 21 - - 1.0 - - - - - - -
28/05:30pm 19.1 WSW 15 22 - - 1.0 - - - - - - -
28/05:00pm 19.1 SW 13 19 - - 1.0 - - - - - - -
28/04:30pm 18.8 SW 14 20 - - 1.0 - - - - - - -
28/04:00pm 19.2 WSW 13 21 - - 1.0 - - - - - - -
28/03:30pm 18.3 W 11 16 - - 1.0 - - - - - - -
28/03:00pm 17.1 WSW 17 28 - - 0.8 Rain - - - - - -
28/02:46pm 19.5 W 17 31 - - 0.4 - - - - - - -
28/02:30pm 20.6 W 15 22 - - 0.4 - - - - - - -
28/02:01pm 18.0 WSW 19 31 - - 0.4 - - - - - - -
28/02:00pm 17.9 WSW 18 31 - - 0.4 - - - - - - -
28/01:58pm 18.8 W 18 31 - - 0.4 - - - - - - -
28/01:30pm 19.7 W 15 24 - - 0.4 - - - - - - -
28/01:00pm 16.6 W 17 23 - - 0.4 - - - - - - -
28/12:30pm 21.0 WNW 14 20 - - 0.0 - - - - - - -
28/12:00pm 18.5 W 14 19 - - 0.0 - - - - - - -
28/11:30am 19.4 W 16 23 - - 0.0 - - - - - - -
28/11:00am 20.4 WNW 16 23 - - 0.0 - - - - - - -
28/10:30am 20.3 WNW 16 24 - - 0.0 - - - - - - -
28/10:00am 19.3 W 13 21 - - 0.0 - - - - - - -
28/09:30am 17.4 W 12 20 - - 0.0 - - - - - - -
28/09:07am 18.6 W 15 31 - - 0.0 - - - - - - -
28/09:00am 19.2 W 14 19 - - 1.2 - - - - - - -

Other Formats:

Comma delimited format used in spreadsheet applications
http://www.bom.gov.au/fwo/IDW60701/IDW60701.94614.axf

JavaScript Object Notation format (JSON) in row-major order
http://www.bom.gov.au/fwo/IDW60701/IDW60701.94614.json